Aérodrome :
LOGIN :

S'inscrire | Disclaimer

   EN    FR    IT 

 










Légende :    VFR   VFR Marginal   IFR   IFR Intensif   IFR Très Intensif
Visi : 
Plafond : 
>= 8 km
>= 3000ft
5 à 8 km
1000 à 3000 ft
1500m à 5 km
500 à 1000 ft
800 à 1500m
200 à 500 ft
< 800m
< 200 ft
Symboles :   Orages  Brouillard  Fortes neiges  Fortes précipitations  Vent > 20 kt
SIGMETs :   Divers  Orages  Givrage  Turbulence  Onde Orograph.  Cendres Volcan.






- Altitude de l'aérodrome : 781 ft
- Code IATA : SKP


LWSK - Skopje

DERNIER METAR :
  • 282220Z 15003KT 120V190 9999 SCT100 13/11 Q1015 NOSIG

METARs EXPIRÉS :
  • 282150Z 06006KT 030V110 9999 SCT100 15/12 Q1015 NOSIG
  • 282120Z 03008KT 9999 SCT100 14/12 Q1014 NOSIG
  • 282050Z 02006KT 9999 FEW100 14/11 Q1014 NOSIG
  • 282020Z VRB03KT 9999 FEW100 14/11 Q1014 NOSIG
  • 281950Z 06003KT 010V080 9999 FEW090 15/12 Q1014 NOSIG
  • 281920Z VRB01KT 9999 SCT100 15/12 Q1014 NOSIG
  • 281850Z 13004KT 090V170 9999 SCT100 16/12 Q1014 NOSIG
  • 281820Z VRB04KT 9999 FEW050 SCT100 17/12 Q1014 NOSIG
  • 281750Z 02003KT 310V080 9999 FEW050 SCT090 18/12 Q1014 NOSIG

TAF TAF LWSK
Valide du 28 à 21h jusqu'au 29 à 21h UTC


282030Z 2821/2921 03008KT 9999 FEW100



MET'MAP, la Météo Aéronautique d'un coup d'oeil ! - Copyright ORBIFLY Décembre 2007 - Disclaimer

ORBIFLY MET'MAP TEAM :

Programmation & Développement : Alexandra Zaïnal
Sur une idée originale de : Baudouin d'Aumeries
Soutien technique & logistique : Manuel Goepfert
Assistance : Marc-Olivier Méhu




SOURCES & CREDITS :

   NOAA